sensor_id;sensor_type;location;lat;lon;timestamp;pressure;altitude;pressure_sealevel;temperature;humidity
38227;BME280;24026;49.446;8.576;2023-04-28T00:02:14;100341.91;;;17.35;39.05
38227;BME280;24026;49.446;8.576;2023-04-28T00:04:34;100335.97;;;17.38;39.15
38227;BME280;24026;49.446;8.576;2023-04-28T00:06:55;100313.97;;;17.36;39.12
38227;BME280;24026;49.446;8.576;2023-04-28T00:09:15;100316.66;;;17.36;39.15
38227;BME280;24026;49.446;8.576;2023-04-28T00:11:36;100314.25;;;17.34;39.38
38227;BME280;24026;49.446;8.576;2023-04-28T00:13:57;100315.34;;;17.33;39.37
38227;BME280;24026;49.446;8.576;2023-04-28T00:16:17;100304.09;;;17.31;39.73
38227;BME280;24026;49.446;8.576;2023-04-28T00:18:37;100305.66;;;17.32;39.33
38227;BME280;24026;49.446;8.576;2023-04-28T00:20:58;100301.13;;;17.33;39.15
38227;BME280;24026;49.446;8.576;2023-04-28T00:23:18;100300.28;;;17.32;39.51
38227;BME280;24026;49.446;8.576;2023-04-28T00:25:39;100281.81;;;17.31;39.65
38227;BME280;24026;49.446;8.576;2023-04-28T00:27:59;100268.97;;;17.28;39.81
38227;BME280;24026;49.446;8.576;2023-04-28T00:30:20;100277.50;;;17.30;39.47
38227;BME280;24026;49.446;8.576;2023-04-28T00:32:41;100272.44;;;17.28;39.99
38227;BME280;24026;49.446;8.576;2023-04-28T00:35:01;100267.84;;;17.29;39.47
38227;BME280;24026;49.446;8.576;2023-04-28T00:37:21;100265.97;;;17.29;39.67
38227;BME280;24026;49.446;8.576;2023-04-28T00:39:41;100260.06;;;17.27;39.85
38227;BME280;24026;49.446;8.576;2023-04-28T00:42:06;100250.16;;;17.28;39.89
38227;BME280;24026;49.446;8.576;2023-04-28T00:44:26;100239.41;;;17.28;39.64
38227;BME280;24026;49.446;8.576;2023-04-28T00:46:46;100244.50;;;17.29;39.66
38227;BME280;24026;49.446;8.576;2023-04-28T00:49:07;100237.00;;;17.26;39.81
38227;BME280;24026;49.446;8.576;2023-04-28T00:51:27;100238.59;;;17.27;39.73
38227;BME280;24026;49.446;8.576;2023-04-28T00:53:48;100244.25;;;17.26;39.82
38227;BME280;24026;49.446;8.576;2023-04-28T00:56:08;100244.25;;;17.26;39.79
38227;BME280;24026;49.446;8.576;2023-04-28T00:58:29;100241.88;;;17.24;40.01
38227;BME280;24026;49.446;8.576;2023-04-28T01:00:49;100240.28;;;17.23;40.49
38227;BME280;24026;49.446;8.576;2023-04-28T01:03:10;100239.19;;;17.24;40.06
38227;BME280;24026;49.446;8.576;2023-04-28T01:05:30;100226.84;;;17.23;40.19
38227;BME280;24026;49.446;8.576;2023-04-28T01:07:51;100226.06;;;17.22;40.23
38227;BME280;24026;49.446;8.576;2023-04-28T01:10:11;100221.75;;;17.21;40.34
38227;BME280;24026;49.446;8.576;2023-04-28T01:12:31;100218.56;;;17.19;40.40
38227;BME280;24026;49.446;8.576;2023-04-28T01:14:52;100213.19;;;17.19;40.68
38227;BME280;24026;49.446;8.576;2023-04-28T01:17:12;100216.97;;;17.18;40.55
38227;BME280;24026;49.446;8.576;2023-04-28T01:19:33;100215.38;;;17.17;40.66
38227;BME280;24026;49.446;8.576;2023-04-28T01:21:53;100202.25;;;17.16;41.16
38227;BME280;24026;49.446;8.576;2023-04-28T01:24:13;100202.25;;;17.16;41.20
38227;BME280;24026;49.446;8.576;2023-04-28T01:26:33;100202.81;;;17.13;41.63
38227;BME280;24026;49.446;8.576;2023-04-28T01:28:54;100207.91;;;17.14;41.04
38227;BME280;24026;49.446;8.576;2023-04-28T01:31:14;100207.63;;;17.16;41.01
38227;BME280;24026;49.446;8.576;2023-04-28T01:33:34;100207.91;;;17.14;41.00
38227;BME280;24026;49.446;8.576;2023-04-28T01:35:56;100204.13;;;17.15;40.92
38227;BME280;24026;49.446;8.576;2023-04-28T01:38:16;100200.63;;;17.15;41.09
38227;BME280;24026;49.446;8.576;2023-04-28T01:40:36;100200.13;;;17.13;41.21
38227;BME280;24026;49.446;8.576;2023-04-28T01:42:57;100202.53;;;17.14;41.28
38227;BME280;24026;49.446;8.576;2023-04-28T01:45:17;100205.22;;;17.14;41.17
38227;BME280;24026;49.446;8.576;2023-04-28T01:47:37;100206.28;;;17.13;41.26
38227;BME280;24026;49.446;8.576;2023-04-28T01:49:58;100206.28;;;17.13;41.31
38227;BME280;24026;49.446;8.576;2023-04-28T01:52:18;100204.69;;;17.12;41.58
38227;BME280;24026;49.446;8.576;2023-04-28T01:54:41;100203.09;;;17.11;41.38
38227;BME280;24026;49.446;8.576;2023-04-28T01:57:01;100203.91;;;17.12;41.47
38227;BME280;24026;49.446;8.576;2023-04-28T01:59:22;100212.25;;;17.10;41.70
38227;BME280;24026;49.446;8.576;2023-04-28T02:01:42;100207.16;;;17.09;41.67
38227;BME280;24026;49.446;8.576;2023-04-28T02:04:02;100209.56;;;17.10;41.78
38227;BME280;24026;49.446;8.576;2023-04-28T02:06:22;100207.97;;;17.09;41.86
38227;BME280;24026;49.446;8.576;2023-04-28T02:08:43;100206.38;;;17.08;41.78
38227;BME280;24026;49.446;8.576;2023-04-28T02:11:03;100199.38;;;17.07;41.93
38227;BME280;24026;49.446;8.576;2023-04-28T02:13:23;100197.00;;;17.06;41.88
38227;BME280;24026;49.446;8.576;2023-04-28T02:15:44;100193.22;;;17.07;41.93
38227;BME280;24026;49.446;8.576;2023-04-28T02:18:04;100200.50;;;17.06;41.83
38227;BME280;24026;49.446;8.576;2023-04-28T02:20:25;100214.72;;;17.07;41.97
38227;BME280;24026;49.446;8.576;2023-04-28T02:22:46;100204.25;;;17.05;42.04
38227;BME280;24026;49.446;8.576;2023-04-28T02:25:06;100194.91;;;17.02;42.23
38227;BME280;24026;49.446;8.576;2023-04-28T02:27:27;100204.03;;;17.01;42.37
38227;BME280;24026;49.446;8.576;2023-04-28T02:29:47;100202.97;;;17.02;42.31
38227;BME280;24026;49.446;8.576;2023-04-28T02:32:08;100196.78;;;17.02;42.47
38227;BME280;24026;49.446;8.576;2023-04-28T02:34:28;100204.03;;;17.01;42.33
38227;BME280;24026;49.446;8.576;2023-04-28T02:36:48;100204.03;;;17.01;42.54
38227;BME280;24026;49.446;8.576;2023-04-28T02:39:08;100207.50;;;17.02;42.48
38227;BME280;24026;49.446;8.576;2023-04-28T02:41:29;100200.56;;;17.01;42.51
38227;BME280;24026;49.446;8.576;2023-04-28T02:43:50;100191.69;;;17.00;42.68
38227;BME280;24026;49.446;8.576;2023-04-28T02:46:10;100198.97;;;17.00;42.75
38227;BME280;24026;49.446;8.576;2023-04-28T02:48:30;100208.09;;;16.99;42.67
38227;BME280;24026;49.446;8.576;2023-04-28T02:50:52;100209.19;;;16.98;42.74
38227;BME280;24026;49.446;8.576;2023-04-28T02:53:13;100218.03;;;16.98;42.84
38227;BME280;24026;49.446;8.576;2023-04-28T02:55:33;100219.13;;;16.97;42.85
38227;BME280;24026;49.446;8.576;2023-04-28T02:57:53;100205.72;;;16.97;42.98
38227;BME280;24026;49.446;8.576;2023-04-28T03:00:14;100204.09;;;16.96;43.04
38227;BME280;24026;49.446;8.576;2023-04-28T03:02:34;100200.91;;;16.94;43.33
38227;BME280;24026;49.446;8.576;2023-04-28T03:04:54;100192.59;;;16.96;43.34
38227;BME280;24026;49.446;8.576;2023-04-28T03:07:15;100182.41;;;16.93;43.21
38227;BME280;24026;49.446;8.576;2023-04-28T03:09:35;100184.81;;;16.94;43.27
38227;BME280;24026;49.446;8.576;2023-04-28T03:11:55;100175.94;;;16.94;43.31
38227;BME280;24026;49.446;8.576;2023-04-28T03:14:15;100170.84;;;16.92;43.45
38227;BME280;24026;49.446;8.576;2023-04-28T03:16:36;100161.72;;;16.93;43.52
38227;BME280;24026;49.446;8.576;2023-04-28T03:18:57;100169.00;;;16.93;43.67
38227;BME280;24026;49.446;8.576;2023-04-28T03:21:17;100166.59;;;16.91;43.76
38227;BME280;24026;49.446;8.576;2023-04-28T03:23:37;100170.06;;;16.92;43.78
38227;BME280;24026;49.446;8.576;2023-04-28T03:25:57;100151.28;;;16.92;43.85
38227;BME280;24026;49.446;8.576;2023-04-28T03:28:18;100153.19;;;16.91;43.82
38227;BME280;24026;49.446;8.576;2023-04-28T03:30:38;100141.66;;;16.91;44.00
38227;BME280;24026;49.446;8.576;2023-04-28T03:32:58;100134.69;;;16.90;44.11
38227;BME280;24026;49.446;8.576;2023-04-28T03:35:18;100132.28;;;16.88;44.13
38227;BME280;24026;49.446;8.576;2023-04-28T03:37:39;100148.88;;;16.90;44.11
38227;BME280;24026;49.446;8.576;2023-04-28T03:39:59;100147.59;;;16.88;44.35
38227;BME280;24026;49.446;8.576;2023-04-28T03:42:20;100141.41;;;16.87;44.45
38227;BME280;24026;49.446;8.576;2023-04-28T03:44:40;100140.34;;;16.88;44.18
38227;BME280;24026;49.446;8.576;2023-04-28T03:47:01;100140.63;;;16.87;44.53
38227;BME280;24026;49.446;8.576;2023-04-28T03:49:21;100144.38;;;16.85;44.35
38227;BME280;24026;49.446;8.576;2023-04-28T03:51:41;100146.28;;;16.85;44.67
38227;BME280;24026;49.446;8.576;2023-04-28T03:54:01;100144.66;;;16.84;44.56
38227;BME280;24026;49.446;8.576;2023-04-28T03:56:22;100147.34;;;16.84;44.65
38227;BME280;24026;49.446;8.576;2023-04-28T03:58:42;100149.75;;;16.85;44.88
38227;BME280;24026;49.446;8.576;2023-04-28T04:01:02;100156.72;;;16.87;44.70
38227;BME280;24026;49.446;8.576;2023-04-28T04:03:23;100152.72;;;16.84;44.85
38227;BME280;24026;49.446;8.576;2023-04-28T04:05:45;100148.16;;;16.84;44.95
38227;BME280;24026;49.446;8.576;2023-04-28T04:08:05;100145.47;;;16.84;44.73
38227;BME280;24026;49.446;8.576;2023-04-28T04:10:25;100152.72;;;16.84;44.92
38227;BME280;24026;49.446;8.576;2023-04-28T04:12:46;100145.75;;;16.83;44.98
38227;BME280;24026;49.446;8.576;2023-04-28T04:15:07;100155.69;;;16.82;44.99
38227;BME280;24026;49.446;8.576;2023-04-28T04:17:27;100154.06;;;16.81;45.38
38227;BME280;24026;49.446;8.576;2023-04-28T04:19:47;100144.41;;;16.80;45.41
38227;BME280;24026;49.446;8.576;2023-04-28T04:22:08;100157.84;;;16.80;45.44
38227;BME280;24026;49.446;8.576;2023-04-28T04:24:28;100150.88;;;16.79;45.33
38227;BME280;24026;49.446;8.576;2023-04-28T04:26:48;100149.28;;;16.78;45.63
38227;BME280;24026;49.446;8.576;2023-04-28T04:29:08;100137.75;;;16.78;45.66
38227;BME280;24026;49.446;8.576;2023-04-28T04:31:29;100139.34;;;16.79;45.54
38227;BME280;24026;49.446;8.576;2023-04-28T04:33:49;100126.22;;;16.77;45.84
38227;BME280;24026;49.446;8.576;2023-04-28T04:36:09;100134.28;;;16.77;45.75
38227;BME280;24026;49.446;8.576;2023-04-28T04:38:29;100136.44;;;16.75;45.93
38227;BME280;24026;49.446;8.576;2023-04-28T04:40:50;100128.38;;;16.75;46.01
38227;BME280;24026;49.446;8.576;2023-04-28T04:43:10;100141.81;;;16.75;46.01
38227;BME280;24026;49.446;8.576;2023-04-28T04:45:31;100144.47;;;16.75;45.93
38227;BME280;24026;49.446;8.576;2023-04-28T04:47:51;100144.78;;;16.74;46.17
38227;BME280;24026;49.446;8.576;2023-04-28T04:50:12;100150.13;;;16.74;46.02
38227;BME280;24026;49.446;8.576;2023-04-28T04:52:32;100142.38;;;16.72;46.14
38227;BME280;24026;49.446;8.576;2023-04-28T04:54:53;100139.69;;;16.72;46.28
38227;BME280;24026;49.446;8.576;2023-04-28T04:57:15;100140.78;;;16.71;46.41
38227;BME280;24026;49.446;8.576;2023-04-28T04:59:36;100145.38;;;16.71;46.50
38227;BME280;24026;49.446;8.576;2023-04-28T05:01:56;100137.53;;;16.74;46.44
38227;BME280;24026;49.446;8.576;2023-04-28T05:04:17;100143.19;;;16.73;46.50
38227;BME280;24026;49.446;8.576;2023-04-28T05:06:37;100147.75;;;16.72;46.51
38227;BME280;24026;49.446;8.576;2023-04-28T05:08:58;100145.88;;;16.73;46.41
38227;BME280;24026;49.446;8.576;2023-04-28T05:11:18;100142.09;;;16.74;46.64
38227;BME280;24026;49.446;8.576;2023-04-28T05:13:40;100145.03;;;16.77;46.56
38227;BME280;24026;49.446;8.576;2023-04-28T05:16:01;100146.59;;;16.78;46.47
38227;BME280;24026;49.446;8.576;2023-04-28T05:18:21;100146.09;;;16.76;46.73
38227;BME280;24026;49.446;8.576;2023-04-28T05:20:41;100152.25;;;16.77;46.70
38227;BME280;24026;49.446;8.576;2023-04-28T05:23:02;100142.63;;;16.76;47.05
38227;BME280;24026;49.446;8.576;2023-04-28T05:25:22;100139.94;;;16.76;46.86
38227;BME280;24026;49.446;8.576;2023-04-28T05:27:42;100135.06;;;16.78;46.86
38227;BME280;24026;49.446;8.576;2023-04-28T05:30:04;100126.22;;;16.77;46.95
38227;BME280;24026;49.446;8.576;2023-04-28T05:32:30;100128.09;;;16.77;46.89
38227;BME280;24026;49.446;8.576;2023-04-28T05:34:50;100129.72;;;16.78;47.26
38227;BME280;24026;49.446;8.576;2023-04-28T05:37:11;100143.69;;;16.75;48.53
38227;BME280;24026;49.446;8.576;2023-04-28T05:39:31;100136.16;;;16.77;47.34
38227;BME280;24026;49.446;8.576;2023-04-28T05:41:51;100129.50;;;16.74;48.03
38227;BME280;24026;49.446;8.576;2023-04-28T05:44:11;100141.53;;;16.77;47.72
38227;BME280;24026;49.446;8.576;2023-04-28T05:46:32;100137.19;;;16.81;48.40
38227;BME280;24026;49.446;8.576;2023-04-28T05:48:53;100132.59;;;16.81;48.36
38227;BME280;24026;49.446;8.576;2023-04-28T05:51:15;100123.59;;;16.72;50.50
38227;BME280;24026;49.446;8.576;2023-04-28T05:53:35;100135.38;;;16.76;49.74
38227;BME280;24026;49.446;8.576;2023-04-28T05:55:55;100132.59;;;16.81;49.51
38227;BME280;24026;49.446;8.576;2023-04-28T05:58:16;100134.75;;;16.84;49.86
38227;BME280;24026;49.446;8.576;2023-04-28T06:00:38;100135.25;;;16.87;49.74
38227;BME280;24026;49.446;8.576;2023-04-28T06:02:58;100126.41;;;16.86;50.10
38227;BME280;24026;49.446;8.576;2023-04-28T06:05:19;100131.53;;;16.82;50.80
38227;BME280;24026;49.446;8.576;2023-04-28T06:07:39;100135.00;;;16.83;51.65
38227;BME280;24026;49.446;8.576;2023-04-28T06:10:01;100136.38;;;16.80;51.37
38227;BME280;24026;49.446;8.576;2023-04-28T06:12:22;100137.53;;;16.74;53.76
38227;BME280;24026;49.446;8.576;2023-04-28T06:14:44;100147.25;;;16.70;53.66
38227;BME280;24026;49.446;8.576;2023-04-28T06:17:04;100158.19;;;16.74;52.93
38227;BME280;24026;49.446;8.576;2023-04-28T06:19:25;100168.34;;;16.77;53.03
38227;BME280;24026;49.446;8.576;2023-04-28T06:21:46;100186.06;;;16.78;53.95
38227;BME280;24026;49.446;8.576;2023-04-28T06:24:12;100176.41;;;16.77;53.18
38227;BME280;24026;49.446;8.576;2023-04-28T06:26:33;100189.03;;;16.76;54.40
38227;BME280;24026;49.446;8.576;2023-04-28T06:28:53;100175.31;;;16.78;54.17
38227;BME280;24026;49.446;8.576;2023-04-28T06:31:14;100168.84;;;16.79;54.36
38227;BME280;24026;49.446;8.576;2023-04-28T06:33:34;100157.84;;;16.80;54.15
38227;BME280;24026;49.446;8.576;2023-04-28T06:35:54;100155.16;;;16.80;54.48
38227;BME280;24026;49.446;8.576;2023-04-28T06:38:16;100162.41;;;16.80;54.70
38227;BME280;24026;49.446;8.576;2023-04-28T06:40:36;100156.53;;;16.78;54.71
38227;BME280;24026;49.446;8.576;2023-04-28T06:42:56;100152.19;;;16.82;54.83
38227;BME280;24026;49.446;8.576;2023-04-28T06:45:20;100149.50;;;16.82;55.01
38227;BME280;24026;49.446;8.576;2023-04-28T06:47:40;100153.78;;;16.83;54.91
38227;BME280;24026;49.446;8.576;2023-04-28T06:50:02;100146.03;;;16.81;54.43
38227;BME280;24026;49.446;8.576;2023-04-28T06:52:22;100152.19;;;16.82;54.97
38227;BME280;24026;49.446;8.576;2023-04-28T06:54:43;100146.28;;;16.85;54.70
38227;BME280;24026;49.446;8.576;2023-04-28T06:57:03;100147.59;;;16.88;54.51
38227;BME280;24026;49.446;8.576;2023-04-28T06:59:24;100145.47;;;16.84;54.60
38227;BME280;24026;49.446;8.576;2023-04-28T07:01:44;100152.25;;;16.77;55.84
38227;BME280;24026;49.446;8.576;2023-04-28T07:04:04;100151.97;;;16.78;55.79
38227;BME280;24026;49.446;8.576;2023-04-28T07:06:25;100148.22;;;16.79;56.12
38227;BME280;24026;49.446;8.576;2023-04-28T07:08:46;100145.53;;;16.79;55.42
38227;BME280;24026;49.446;8.576;2023-04-28T07:11:08;100153.56;;;16.79;55.17
38227;BME280;24026;49.446;8.576;2023-04-28T07:13:29;100147.38;;;16.79;55.50
38227;BME280;24026;49.446;8.576;2023-04-28T07:15:50;100148.22;;;16.79;56.20
38227;BME280;24026;49.446;8.576;2023-04-28T07:18:11;100145.81;;;16.78;56.29
38227;BME280;24026;49.446;8.576;2023-04-28T07:20:32;100149.00;;;16.80;56.14
38227;BME280;24026;49.446;8.576;2023-04-28T07:22:52;100150.88;;;16.79;56.12
38227;BME280;24026;49.446;8.576;2023-04-28T07:25:13;100134.78;;;16.79;56.03
38227;BME280;24026;49.446;8.576;2023-04-28T07:27:33;100146.03;;;16.81;56.14
38227;BME280;24026;49.446;8.576;2023-04-28T07:29:53;100139.59;;;16.82;56.26
38227;BME280;24026;49.446;8.576;2023-04-28T07:32:14;100138.47;;;16.83;55.83
38227;BME280;24026;49.446;8.576;2023-04-28T07:34:34;100138.75;;;16.82;57.15
38227;BME280;24026;49.446;8.576;2023-04-28T07:36:55;100137.94;;;16.87;56.76
38227;BME280;24026;49.446;8.576;2023-04-28T07:39:15;100143.00;;;16.88;56.28
38227;BME280;24026;49.446;8.576;2023-04-28T07:41:36;100138.44;;;16.89;56.51
38227;BME280;24026;49.446;8.576;2023-04-28T07:43:57;100139.28;;;16.84;57.47
38227;BME280;24026;49.446;8.576;2023-04-28T07:46:17;100119.16;;;16.87;57.19
38227;BME280;24026;49.446;8.576;2023-04-28T07:48:37;100124.22;;;16.88;56.69
38227;BME280;24026;49.446;8.576;2023-04-28T07:50:58;100127.19;;;16.87;56.93
38227;BME280;24026;49.446;8.576;2023-04-28T07:53:18;100116.97;;;16.89;57.33
38227;BME280;24026;49.446;8.576;2023-04-28T07:55:38;100116.97;;;16.89;57.05
38227;BME280;24026;49.446;8.576;2023-04-28T07:58:01;100124.94;;;16.94;56.69
38227;BME280;24026;49.446;8.576;2023-04-28T08:00:21;100123.28;;;16.98;56.75
38227;BME280;24026;49.446;8.576;2023-04-28T08:02:41;100128.16;;;16.96;56.82
38227;BME280;24026;49.446;8.576;2023-04-28T08:05:01;100133.25;;;16.97;57.43
38227;BME280;24026;49.446;8.576;2023-04-28T08:07:22;100129.22;;;16.95;57.68
38227;BME280;24026;49.446;8.576;2023-04-28T08:09:43;100133.53;;;16.96;57.65
38227;BME280;24026;49.446;8.576;2023-04-28T08:12:06;100133.53;;;16.96;57.74
38227;BME280;24026;49.446;8.576;2023-04-28T08:14:26;100128.16;;;16.96;57.62
38227;BME280;24026;49.446;8.576;2023-04-28T08:16:47;100117.41;;;16.96;57.65
38227;BME280;24026;49.446;8.576;2023-04-28T08:19:07;100107.47;;;16.96;57.42
38227;BME280;24026;49.446;8.576;2023-04-28T08:21:27;100125.47;;;16.96;57.19
38227;BME280;24026;49.446;8.576;2023-04-28T08:23:48;100123.56;;;16.96;57.45
38227;BME280;24026;49.446;8.576;2023-04-28T08:26:08;100125.97;;;16.98;57.25
38227;BME280;24026;49.446;8.576;2023-04-28T08:28:29;100116.81;;;16.99;57.38
38227;BME280;24026;49.446;8.576;2023-04-28T08:30:49;100120.59;;;16.98;57.43
38227;BME280;24026;49.446;8.576;2023-04-28T08:33:10;100125.97;;;16.98;57.16
38227;BME280;24026;49.446;8.576;2023-04-28T08:35:30;100128.38;;;16.99;57.21
38227;BME280;24026;49.446;8.576;2023-04-28T08:37:51;100126.75;;;16.98;57.20
38227;BME280;24026;49.446;8.576;2023-04-28T08:40:11;100140.97;;;16.99;57.91
38227;BME280;24026;49.446;8.576;2023-04-28T08:42:32;100136.13;;;17.01;57.94
38227;BME280;24026;49.446;8.576;2023-04-28T08:44:52;100135.84;;;17.02;57.30
38227;BME280;24026;49.446;8.576;2023-04-28T08:47:18;100136.13;;;17.01;57.70
38227;BME280;24026;49.446;8.576;2023-04-28T08:49:40;100131.63;;;16.96;58.65
38227;BME280;24026;49.446;8.576;2023-04-28T08:52:01;100132.13;;;16.98;58.07
38227;BME280;24026;49.446;8.576;2023-04-28T08:54:22;100128.59;;;17.03;58.02
38227;BME280;24026;49.446;8.576;2023-04-28T08:56:42;100140.63;;;17.06;58.31
38227;BME280;24026;49.446;8.576;2023-04-28T08:59:04;100137.94;;;17.06;58.18
38227;BME280;24026;49.446;8.576;2023-04-28T09:01:24;100130.41;;;17.08;58.50
38227;BME280;24026;49.446;8.576;2023-04-28T09:03:44;100131.19;;;17.08;58.70
38227;BME280;24026;49.446;8.576;2023-04-28T09:06:06;100132.50;;;17.11;58.46
38227;BME280;24026;49.446;8.576;2023-04-28T09:08:26;100128.22;;;17.10;58.65
38227;BME280;24026;49.446;8.576;2023-04-28T09:10:47;100140.25;;;17.12;58.93
38227;BME280;24026;49.446;8.576;2023-04-28T09:13:07;100141.06;;;17.13;59.01
38227;BME280;24026;49.446;8.576;2023-04-28T09:15:29;100144.53;;;17.13;58.59
38227;BME280;24026;49.446;8.576;2023-04-28T09:17:50;100142.06;;;17.17;58.24
38227;BME280;24026;49.446;8.576;2023-04-28T09:20:22;100137.50;;;17.17;58.75
38227;BME280;24026;49.446;8.576;2023-04-28T09:22:43;100143.69;;;17.18;59.02
38227;BME280;24026;49.446;8.576;2023-04-28T09:25:09;100142.28;;;17.20;58.75
38227;BME280;24026;49.446;8.576;2023-04-28T09:27:30;100142.88;;;17.17;58.90
38227;BME280;24026;49.446;8.576;2023-04-28T09:29:51;100143.97;;;17.16;58.70
38227;BME280;24026;49.446;8.576;2023-04-28T09:32:12;100140.78;;;17.14;59.53
38227;BME280;24026;49.446;8.576;2023-04-28T09:34:43;100141.84;;;17.13;60.33
38227;BME280;24026;49.446;8.576;2023-04-28T09:37:13;100141.84;;;17.13;59.96
38227;BME280;24026;49.446;8.576;2023-04-28T09:39:34;100139.47;;;17.12;59.68
38227;BME280;24026;49.446;8.576;2023-04-28T09:41:54;100140.78;;;17.14;59.16
38227;BME280;24026;49.446;8.576;2023-04-28T09:44:16;100136.69;;;17.17;59.65
38227;BME280;24026;49.446;8.576;2023-04-28T09:46:37;100132.94;;;17.18;59.31
38227;BME280;24026;49.446;8.576;2023-04-28T09:48:59;100136.13;;;17.20;59.23
38227;BME280;24026;49.446;8.576;2023-04-28T09:51:20;100132.06;;;17.22;59.62
38227;BME280;24026;49.446;8.576;2023-04-28T09:53:40;100136.34;;;17.23;59.50
38227;BME280;24026;49.446;8.576;2023-04-28T09:56:01;100137.94;;;17.25;59.73
38227;BME280;24026;49.446;8.576;2023-04-28T09:58:23;100141.91;;;17.27;59.52
38227;BME280;24026;49.446;8.576;2023-04-28T10:00:44;100139.50;;;17.26;59.56
38227;BME280;24026;49.446;8.576;2023-04-28T10:03:06;100140.84;;;17.28;59.66
38227;BME280;24026;49.446;8.576;2023-04-28T10:05:28;100132.78;;;17.28;59.67
38227;BME280;24026;49.446;8.576;2023-04-28T10:07:49;100134.38;;;17.29;60.09
38227;BME280;24026;49.446;8.576;2023-04-28T10:10:10;100140.53;;;17.30;59.96
38227;BME280;24026;49.446;8.576;2023-04-28T10:12:33;100146.66;;;17.16;60.21
38227;BME280;24026;49.446;8.576;2023-04-28T10:14:57;100144.69;;;17.22;60.27
38227;BME280;24026;49.446;8.576;2023-04-28T10:17:17;100147.56;;;17.26;60.53
38227;BME280;24026;49.446;8.576;2023-04-28T10:19:38;100144.00;;;17.30;60.60
38227;BME280;24026;49.446;8.576;2023-04-28T10:22:03;100143.72;;;17.32;60.09
38227;BME280;24026;49.446;8.576;2023-04-28T10:24:28;100142.94;;;17.31;59.94
38227;BME280;24026;49.446;8.576;2023-04-28T10:27:03;100145.91;;;17.30;60.19
38227;BME280;24026;49.446;8.576;2023-04-28T10:29:24;100146.19;;;17.28;60.87
38227;BME280;24026;49.446;8.576;2023-04-28T10:34:25;100142.66;;;17.33;60.20
38227;BME280;24026;49.446;8.576;2023-04-28T10:36:48;100143.44;;;17.33;60.82
38227;BME280;24026;49.446;8.576;2023-04-28T10:39:10;100142.34;;;17.34;61.00
38227;BME280;24026;49.446;8.576;2023-04-28T10:41:31;100145.03;;;17.34;61.24
38227;BME280;24026;49.446;8.576;2023-04-28T10:43:52;100136.69;;;17.36;61.25
38227;BME280;24026;49.446;8.576;2023-04-28T10:46:12;100131.09;;;17.32;60.99
38227;BME280;24026;49.446;8.576;2023-04-28T10:53:50;100134.50;;;17.38;61.32
38227;BME280;24026;49.446;8.576;2023-04-28T10:56:05;100136.09;;;17.39;62.00
38227;BME280;24026;49.446;8.576;2023-04-28T11:00:46;100127.16;;;17.44;62.37
38227;BME280;24026;49.446;8.576;2023-04-28T11:03:06;100130.44;;;17.40;61.82
38227;BME280;24026;49.446;8.576;2023-04-28T11:05:27;100131.31;;;17.36;61.84
38227;BME280;24026;49.446;8.576;2023-04-28T11:11:10;100122.75;;;17.34;62.21
38227;BME280;24026;49.446;8.576;2023-04-28T11:13:25;100124.13;;;17.31;62.69
38227;BME280;24026;49.446;8.576;2023-04-28T11:15:54;100116.94;;;17.27;62.73
38227;BME280;24026;49.446;8.576;2023-04-28T11:18:22;100123.41;;;17.26;63.41
38227;BME280;24026;49.446;8.576;2023-04-28T11:20:48;100121.81;;;17.25;63.45
38227;BME280;24026;49.446;8.576;2023-04-28T11:23:17;100120.50;;;17.22;63.81
38227;BME280;24026;49.446;8.576;2023-04-28T11:25:54;100116.44;;;17.25;63.33
38227;BME280;24026;49.446;8.576;2023-04-28T11:28:14;100115.34;;;17.26;63.20
38227;BME280;24026;49.446;8.576;2023-04-28T11:30:36;100123.72;;;17.24;63.92
38227;BME280;24026;49.446;8.576;2023-04-28T11:32:56;100118.34;;;17.24;64.21
38227;BME280;24026;49.446;8.576;2023-04-28T11:35:21;100123.41;;;17.26;63.72
38227;BME280;24026;49.446;8.576;2023-04-28T11:38:00;100127.97;;;17.25;64.76
38227;BME280;24026;49.446;8.576;2023-04-28T11:40:23;100121.53;;;17.26;64.21
38227;BME280;24026;49.446;8.576;2023-04-28T11:42:49;100131.47;;;17.26;64.08
38227;BME280;24026;49.446;8.576;2023-04-28T11:45:10;100126.09;;;17.26;64.01
38227;BME280;24026;49.446;8.576;2023-04-28T11:47:32;100127.19;;;17.25;63.92
38227;BME280;24026;49.446;8.576;2023-04-28T11:49:53;100138.44;;;17.27;64.25
38227;BME280;24026;49.446;8.576;2023-04-28T11:52:13;100128.47;;;17.27;64.40
38227;BME280;24026;49.446;8.576;2023-04-28T11:54:33;100110.78;;;17.26;64.00
38227;BME280;24026;49.446;8.576;2023-04-28T11:56:54;100107.91;;;17.22;64.70
38227;BME280;24026;49.446;8.576;2023-04-28T11:59:15;100121.81;;;17.25;65.84
38227;BME280;24026;49.446;8.576;2023-04-28T12:04:08;100114.63;;;17.20;65.21
38227;BME280;24026;49.446;8.576;2023-04-28T12:06:28;100129.97;;;17.19;65.57
38227;BME280;24026;49.446;8.576;2023-04-28T12:08:48;100121.63;;;17.21;65.37
38227;BME280;24026;49.446;8.576;2023-04-28T12:11:09;100121.91;;;17.19;65.15
38227;BME280;24026;49.446;8.576;2023-04-28T12:13:30;100119.22;;;17.19;65.79
38227;BME280;24026;49.446;8.576;2023-04-28T12:15:50;100123.78;;;17.19;65.89
38227;BME280;24026;49.446;8.576;2023-04-28T12:18:11;100118.13;;;17.20;65.64
38227;BME280;24026;49.446;8.576;2023-04-28T12:22:54;100147.66;;;17.20;66.51
38227;BME280;24026;49.446;8.576;2023-04-28T12:25:16;100135.53;;;17.23;66.40
38227;BME280;24026;49.446;8.576;2023-04-28T12:27:37;100140.13;;;17.22;66.59
38227;BME280;24026;49.446;8.576;2023-04-28T12:29:59;100139.00;;;17.23;66.63
38227;BME280;24026;49.446;8.576;2023-04-28T12:32:19;100135.25;;;17.25;66.70
38227;BME280;24026;49.446;8.576;2023-04-28T12:34:56;100124.50;;;17.25;66.81
38227;BME280;24026;49.446;8.576;2023-04-28T12:37:17;100101.91;;;17.26;67.12